sensor_id;sensor_type;location;lat;lon;timestamp;P1;durP1;ratioP1;P2;durP2;ratioP2
42000;SDS011;27689;48.390;10.856;2023-02-21T00:01:25;8.27;;;5.05;;
42000;SDS011;27689;48.390;10.856;2023-02-21T00:04:28;6.88;;;4.35;;
42000;SDS011;27689;48.390;10.856;2023-02-21T00:07:31;7.70;;;4.75;;
42000;SDS011;27689;48.390;10.856;2023-02-21T00:10:35;7.18;;;5.13;;
42000;SDS011;27689;48.390;10.856;2023-02-21T00:13:38;7.20;;;4.97;;
42000;SDS011;27689;48.390;10.856;2023-02-21T00:16:40;7.25;;;4.93;;
42000;SDS011;27689;48.390;10.856;2023-02-21T00:19:43;6.55;;;4.75;;
42000;SDS011;27689;48.390;10.856;2023-02-21T00:22:46;7.78;;;4.40;;
42000;SDS011;27689;48.390;10.856;2023-02-21T00:25:49;6.72;;;4.63;;
42000;SDS011;27689;48.390;10.856;2023-02-21T00:28:52;6.85;;;4.43;;
42000;SDS011;27689;48.390;10.856;2023-02-21T00:31:54;7.03;;;4.57;;
42000;SDS011;27689;48.390;10.856;2023-02-21T00:34:57;7.25;;;4.95;;
42000;SDS011;27689;48.390;10.856;2023-02-21T00:38:00;5.38;;;4.25;;
42000;SDS011;27689;48.390;10.856;2023-02-21T00:41:03;9.10;;;4.32;;
42000;SDS011;27689;48.390;10.856;2023-02-21T00:44:06;6.38;;;4.55;;
42000;SDS011;27689;48.390;10.856;2023-02-21T00:47:09;7.82;;;4.50;;
42000;SDS011;27689;48.390;10.856;2023-02-21T00:50:12;5.65;;;4.40;;
42000;SDS011;27689;48.390;10.856;2023-02-21T00:53:15;5.80;;;4.47;;
42000;SDS011;27689;48.390;10.856;2023-02-21T00:56:19;6.85;;;4.68;;
42000;SDS011;27689;48.390;10.856;2023-02-21T00:59:22;6.18;;;4.40;;
42000;SDS011;27689;48.390;10.856;2023-02-21T01:02:25;5.90;;;4.18;;
42000;SDS011;27689;48.390;10.856;2023-02-21T01:05:27;6.15;;;4.20;;
42000;SDS011;27689;48.390;10.856;2023-02-21T01:08:30;5.75;;;3.85;;
42000;SDS011;27689;48.390;10.856;2023-02-21T01:11:33;5.25;;;4.15;;
42000;SDS011;27689;48.390;10.856;2023-02-21T01:14:36;5.40;;;3.97;;
42000;SDS011;27689;48.390;10.856;2023-02-21T01:17:39;5.53;;;4.38;;
42000;SDS011;27689;48.390;10.856;2023-02-21T01:20:42;5.15;;;3.75;;
42000;SDS011;27689;48.390;10.856;2023-02-21T01:23:45;5.15;;;4.03;;
42000;SDS011;27689;48.390;10.856;2023-02-21T01:26:48;6.32;;;4.32;;
42000;SDS011;27689;48.390;10.856;2023-02-21T01:29:50;5.70;;;3.83;;
42000;SDS011;27689;48.390;10.856;2023-02-21T01:32:53;5.65;;;4.15;;
42000;SDS011;27689;48.390;10.856;2023-02-21T01:35:56;5.45;;;4.18;;
42000;SDS011;27689;48.390;10.856;2023-02-21T01:38:58;4.80;;;3.83;;
42000;SDS011;27689;48.390;10.856;2023-02-21T01:42:02;4.55;;;3.58;;
42000;SDS011;27689;48.390;10.856;2023-02-21T01:45:22;4.93;;;3.78;;
42000;SDS011;27689;48.390;10.856;2023-02-21T01:48:33;6.65;;;4.38;;
42000;SDS011;27689;48.390;10.856;2023-02-21T01:51:37;8.93;;;5.75;;
42000;SDS011;27689;48.390;10.856;2023-02-21T01:54:43;8.60;;;5.35;;
42000;SDS011;27689;48.390;10.856;2023-02-21T01:57:48;5.95;;;5.07;;
42000;SDS011;27689;48.390;10.856;2023-02-21T02:00:52;7.95;;;4.90;;
42000;SDS011;27689;48.390;10.856;2023-02-21T02:03:55;7.60;;;5.40;;
42000;SDS011;27689;48.390;10.856;2023-02-21T02:06:59;10.68;;;5.80;;
42000;SDS011;27689;48.390;10.856;2023-02-21T02:10:02;5.72;;;4.40;;
42000;SDS011;27689;48.390;10.856;2023-02-21T02:13:19;6.45;;;4.72;;
42000;SDS011;27689;48.390;10.856;2023-02-21T02:16:54;9.07;;;6.28;;
42000;SDS011;27689;48.390;10.856;2023-02-21T02:20:09;6.28;;;4.85;;
42000;SDS011;27689;48.390;10.856;2023-02-21T02:23:01;7.57;;;4.65;;
42000;SDS011;27689;48.390;10.856;2023-02-21T02:29:18;8.00;;;4.60;;
42000;SDS011;27689;48.390;10.856;2023-02-21T02:32:44;7.50;;;5.25;;
42000;SDS011;27689;48.390;10.856;2023-02-21T02:38:54;7.93;;;5.25;;
42000;SDS011;27689;48.390;10.856;2023-02-21T02:45:32;7.82;;;5.65;;
42000;SDS011;27689;48.390;10.856;2023-02-21T02:48:35;7.00;;;6.30;;
42000;SDS011;27689;48.390;10.856;2023-02-21T02:51:23;7.03;;;5.35;;
42000;SDS011;27689;48.390;10.856;2023-02-21T02:54:08;5.95;;;5.35;;
42000;SDS011;27689;48.390;10.856;2023-02-21T02:56:52;5.97;;;5.33;;
42000;SDS011;27689;48.390;10.856;2023-02-21T02:59:37;7.32;;;5.82;;
42000;SDS011;27689;48.390;10.856;2023-02-21T03:08:37;8.68;;;5.78;;
42000;SDS011;27689;48.390;10.856;2023-02-21T03:11:28;8.45;;;5.13;;
42000;SDS011;27689;48.390;10.856;2023-02-21T03:14:16;8.43;;;5.55;;
42000;SDS011;27689;48.390;10.856;2023-02-21T03:17:04;6.63;;;5.53;;
42000;SDS011;27689;48.390;10.856;2023-02-21T03:19:54;7.65;;;4.88;;
42000;SDS011;27689;48.390;10.856;2023-02-21T03:22:41;6.45;;;5.15;;
42000;SDS011;27689;48.390;10.856;2023-02-21T03:25:27;8.57;;;4.90;;
42000;SDS011;27689;48.390;10.856;2023-02-21T03:28:14;7.43;;;5.13;;
42000;SDS011;27689;48.390;10.856;2023-02-21T03:30:59;7.53;;;5.57;;
42000;SDS011;27689;48.390;10.856;2023-02-21T03:33:44;6.82;;;4.68;;
42000;SDS011;27689;48.390;10.856;2023-02-21T03:36:28;6.18;;;4.97;;
42000;SDS011;27689;48.390;10.856;2023-02-21T03:39:12;8.25;;;5.78;;
42000;SDS011;27689;48.390;10.856;2023-02-21T03:41:56;7.23;;;5.60;;
42000;SDS011;27689;48.390;10.856;2023-02-21T03:44:40;8.27;;;5.72;;
42000;SDS011;27689;48.390;10.856;2023-02-21T03:47:24;7.67;;;5.80;;
42000;SDS011;27689;48.390;10.856;2023-02-21T03:50:08;8.68;;;6.22;;
42000;SDS011;27689;48.390;10.856;2023-02-21T03:52:52;10.43;;;5.87;;
42000;SDS011;27689;48.390;10.856;2023-02-21T03:55:36;8.57;;;6.10;;
42000;SDS011;27689;48.390;10.856;2023-02-21T03:58:20;8.07;;;5.87;;
42000;SDS011;27689;48.390;10.856;2023-02-21T04:01:04;8.80;;;5.95;;
42000;SDS011;27689;48.390;10.856;2023-02-21T04:03:48;9.07;;;5.53;;
42000;SDS011;27689;48.390;10.856;2023-02-21T04:06:33;6.45;;;5.40;;
42000;SDS011;27689;48.390;10.856;2023-02-21T04:09:17;6.25;;;4.95;;
42000;SDS011;27689;48.390;10.856;2023-02-21T04:12:01;10.32;;;5.97;;
42000;SDS011;27689;48.390;10.856;2023-02-21T04:14:45;9.77;;;6.13;;
42000;SDS011;27689;48.390;10.856;2023-02-21T04:17:29;7.10;;;5.53;;
42000;SDS011;27689;48.390;10.856;2023-02-21T04:20:13;8.98;;;5.80;;
42000;SDS011;27689;48.390;10.856;2023-02-21T04:22:58;9.57;;;6.47;;
42000;SDS011;27689;48.390;10.856;2023-02-21T04:25:42;8.05;;;5.88;;
42000;SDS011;27689;48.390;10.856;2023-02-21T04:28:26;8.85;;;5.93;;
42000;SDS011;27689;48.390;10.856;2023-02-21T04:31:10;8.57;;;6.50;;
42000;SDS011;27689;48.390;10.856;2023-02-21T04:33:53;8.10;;;6.23;;
42000;SDS011;27689;48.390;10.856;2023-02-21T04:36:38;7.17;;;5.60;;
42000;SDS011;27689;48.390;10.856;2023-02-21T04:39:22;9.43;;;7.10;;
42000;SDS011;27689;48.390;10.856;2023-02-21T04:42:06;7.53;;;6.10;;
42000;SDS011;27689;48.390;10.856;2023-02-21T04:44:52;6.90;;;5.60;;
42000;SDS011;27689;48.390;10.856;2023-02-21T04:47:36;7.70;;;6.05;;
42000;SDS011;27689;48.390;10.856;2023-02-21T04:50:19;7.07;;;5.43;;
42000;SDS011;27689;48.390;10.856;2023-02-21T04:53:03;6.63;;;5.05;;
42000;SDS011;27689;48.390;10.856;2023-02-21T04:55:47;7.90;;;5.43;;
42000;SDS011;27689;48.390;10.856;2023-02-21T04:58:31;7.03;;;5.40;;
42000;SDS011;27689;48.390;10.856;2023-02-21T05:01:16;8.70;;;5.65;;
42000;SDS011;27689;48.390;10.856;2023-02-21T05:04:01;5.88;;;5.03;;
42000;SDS011;27689;48.390;10.856;2023-02-21T05:06:46;6.28;;;4.85;;
42000;SDS011;27689;48.390;10.856;2023-02-21T05:09:30;7.40;;;5.22;;
42000;SDS011;27689;48.390;10.856;2023-02-21T05:12:14;6.67;;;5.33;;
42000;SDS011;27689;48.390;10.856;2023-02-21T05:14:58;7.22;;;5.45;;
42000;SDS011;27689;48.390;10.856;2023-02-21T05:17:42;7.05;;;5.63;;
42000;SDS011;27689;48.390;10.856;2023-02-21T05:20:26;9.35;;;6.30;;
42000;SDS011;27689;48.390;10.856;2023-02-21T05:23:11;8.45;;;6.63;;
42000;SDS011;27689;48.390;10.856;2023-02-21T05:26:09;12.15;;;6.32;;
42000;SDS011;27689;48.390;10.856;2023-02-21T05:28:56;8.65;;;5.68;;
42000;SDS011;27689;48.390;10.856;2023-02-21T05:31:40;11.45;;;6.43;;
42000;SDS011;27689;48.390;10.856;2023-02-21T05:34:23;11.82;;;7.18;;
42000;SDS011;27689;48.390;10.856;2023-02-21T05:37:07;14.27;;;7.35;;
42000;SDS011;27689;48.390;10.856;2023-02-21T05:39:51;10.90;;;6.47;;
42000;SDS011;27689;48.390;10.856;2023-02-21T05:42:35;12.27;;;7.47;;
42000;SDS011;27689;48.390;10.856;2023-02-21T05:45:19;11.23;;;8.18;;
42000;SDS011;27689;48.390;10.856;2023-02-21T05:48:03;12.82;;;8.85;;
42000;SDS011;27689;48.390;10.856;2023-02-21T05:50:47;12.15;;;8.43;;
42000;SDS011;27689;48.390;10.856;2023-02-21T05:53:31;13.13;;;9.27;;
42000;SDS011;27689;48.390;10.856;2023-02-21T05:56:15;13.10;;;9.13;;
42000;SDS011;27689;48.390;10.856;2023-02-21T05:59:00;11.32;;;8.55;;
42000;SDS011;27689;48.390;10.856;2023-02-21T06:01:44;12.57;;;8.45;;
42000;SDS011;27689;48.390;10.856;2023-02-21T06:07:13;12.55;;;8.32;;
42000;SDS011;27689;48.390;10.856;2023-02-21T06:09:57;12.80;;;8.18;;
42000;SDS011;27689;48.390;10.856;2023-02-21T06:12:41;11.32;;;8.15;;
42000;SDS011;27689;48.390;10.856;2023-02-21T06:15:25;11.25;;;8.90;;
42000;SDS011;27689;48.390;10.856;2023-02-21T06:18:13;13.88;;;8.00;;
42000;SDS011;27689;48.390;10.856;2023-02-21T06:20:58;13.98;;;9.10;;
42000;SDS011;27689;48.390;10.856;2023-02-21T06:23:42;16.08;;;9.40;;
42000;SDS011;27689;48.390;10.856;2023-02-21T06:26:26;12.85;;;9.52;;
42000;SDS011;27689;48.390;10.856;2023-02-21T06:29:11;14.40;;;9.02;;
42000;SDS011;27689;48.390;10.856;2023-02-21T06:31:56;13.98;;;9.35;;
42000;SDS011;27689;48.390;10.856;2023-02-21T06:34:42;11.40;;;8.32;;
42000;SDS011;27689;48.390;10.856;2023-02-21T06:37:26;14.00;;;8.40;;
42000;SDS011;27689;48.390;10.856;2023-02-21T06:40:11;12.65;;;8.43;;
42000;SDS011;27689;48.390;10.856;2023-02-21T06:42:54;13.30;;;9.18;;
42000;SDS011;27689;48.390;10.856;2023-02-21T06:45:38;16.98;;;9.45;;
42000;SDS011;27689;48.390;10.856;2023-02-21T06:48:23;13.68;;;8.93;;
42000;SDS011;27689;48.390;10.856;2023-02-21T06:51:06;10.57;;;7.55;;
42000;SDS011;27689;48.390;10.856;2023-02-21T06:53:54;13.35;;;8.25;;
42000;SDS011;27689;48.390;10.856;2023-02-21T06:56:39;16.00;;;9.73;;
42000;SDS011;27689;48.390;10.856;2023-02-21T06:59:23;14.73;;;10.38;;
42000;SDS011;27689;48.390;10.856;2023-02-21T07:02:09;17.98;;;10.75;;
42000;SDS011;27689;48.390;10.856;2023-02-21T07:05:00;19.33;;;10.35;;
42000;SDS011;27689;48.390;10.856;2023-02-21T07:07:45;16.10;;;10.00;;
42000;SDS011;27689;48.390;10.856;2023-02-21T07:10:29;15.20;;;9.85;;
42000;SDS011;27689;48.390;10.856;2023-02-21T07:13:13;13.05;;;9.10;;
42000;SDS011;27689;48.390;10.856;2023-02-21T07:15:58;16.20;;;9.80;;
42000;SDS011;27689;48.390;10.856;2023-02-21T07:21:26;20.43;;;11.43;;
42000;SDS011;27689;48.390;10.856;2023-02-21T07:24:11;13.48;;;9.70;;
42000;SDS011;27689;48.390;10.856;2023-02-21T07:26:55;15.18;;;10.10;;
42000;SDS011;27689;48.390;10.856;2023-02-21T07:29:39;16.50;;;10.70;;
42000;SDS011;27689;48.390;10.856;2023-02-21T07:32:23;13.20;;;9.48;;
42000;SDS011;27689;48.390;10.856;2023-02-21T07:35:07;12.88;;;9.93;;
42000;SDS011;27689;48.390;10.856;2023-02-21T07:37:51;19.92;;;10.20;;
42000;SDS011;27689;48.390;10.856;2023-02-21T07:40:36;13.68;;;8.95;;
42000;SDS011;27689;48.390;10.856;2023-02-21T07:43:20;18.95;;;9.88;;
42000;SDS011;27689;48.390;10.856;2023-02-21T07:46:04;12.90;;;9.18;;
42000;SDS011;27689;48.390;10.856;2023-02-21T07:48:53;14.50;;;9.55;;
42000;SDS011;27689;48.390;10.856;2023-02-21T07:51:37;13.43;;;9.60;;
42000;SDS011;27689;48.390;10.856;2023-02-21T07:54:21;14.50;;;9.07;;
42000;SDS011;27689;48.390;10.856;2023-02-21T07:57:05;15.00;;;9.35;;
42000;SDS011;27689;48.390;10.856;2023-02-21T07:59:49;14.45;;;7.47;;
42000;SDS011;27689;48.390;10.856;2023-02-21T08:02:33;15.02;;;8.25;;
42000;SDS011;27689;48.390;10.856;2023-02-21T08:05:18;10.77;;;7.72;;
42000;SDS011;27689;48.390;10.856;2023-02-21T08:08:05;13.13;;;7.88;;
42000;SDS011;27689;48.390;10.856;2023-02-21T08:10:50;11.57;;;7.68;;
42000;SDS011;27689;48.390;10.856;2023-02-21T08:13:34;11.88;;;7.43;;
42000;SDS011;27689;48.390;10.856;2023-02-21T08:16:18;14.97;;;7.37;;
42000;SDS011;27689;48.390;10.856;2023-02-21T08:19:02;14.38;;;7.28;;
42000;SDS011;27689;48.390;10.856;2023-02-21T08:21:48;10.63;;;7.28;;
42000;SDS011;27689;48.390;10.856;2023-02-21T08:24:32;11.48;;;7.22;;
42000;SDS011;27689;48.390;10.856;2023-02-21T08:27:17;9.68;;;7.13;;
42000;SDS011;27689;48.390;10.856;2023-02-21T08:30:01;11.15;;;6.95;;
42000;SDS011;27689;48.390;10.856;2023-02-21T08:32:45;9.50;;;6.73;;
42000;SDS011;27689;48.390;10.856;2023-02-21T08:35:31;11.02;;;6.45;;
42000;SDS011;27689;48.390;10.856;2023-02-21T08:38:16;9.47;;;6.13;;
42000;SDS011;27689;48.390;10.856;2023-02-21T08:41:01;11.45;;;5.88;;
42000;SDS011;27689;48.390;10.856;2023-02-21T08:43:46;6.80;;;5.38;;
42000;SDS011;27689;48.390;10.856;2023-02-21T08:46:30;13.23;;;6.15;;
42000;SDS011;27689;48.390;10.856;2023-02-21T08:49:13;9.48;;;5.28;;
42000;SDS011;27689;48.390;10.856;2023-02-21T08:51:58;8.32;;;4.68;;
42000;SDS011;27689;48.390;10.856;2023-02-21T08:54:42;9.73;;;4.85;;
42000;SDS011;27689;48.390;10.856;2023-02-21T08:57:27;8.70;;;5.05;;
42000;SDS011;27689;48.390;10.856;2023-02-21T09:00:12;7.82;;;4.90;;
42000;SDS011;27689;48.390;10.856;2023-02-21T09:02:57;8.85;;;4.57;;
42000;SDS011;27689;48.390;10.856;2023-02-21T09:05:42;7.20;;;4.55;;
42000;SDS011;27689;48.390;10.856;2023-02-21T09:08:26;6.27;;;4.13;;
42000;SDS011;27689;48.390;10.856;2023-02-21T09:11:11;7.15;;;4.30;;
42000;SDS011;27689;48.390;10.856;2023-02-21T09:13:55;6.00;;;4.45;;
42000;SDS011;27689;48.390;10.856;2023-02-21T09:16:39;6.37;;;3.80;;
42000;SDS011;27689;48.390;10.856;2023-02-21T09:19:23;6.10;;;3.67;;
42000;SDS011;27689;48.390;10.856;2023-02-21T09:22:07;7.53;;;3.85;;
42000;SDS011;27689;48.390;10.856;2023-02-21T09:24:52;8.93;;;4.80;;
42000;SDS011;27689;48.390;10.856;2023-02-21T09:27:36;8.65;;;5.05;;
42000;SDS011;27689;48.390;10.856;2023-02-21T09:30:21;7.28;;;4.25;;
42000;SDS011;27689;48.390;10.856;2023-02-21T09:33:08;7.35;;;4.63;;
42000;SDS011;27689;48.390;10.856;2023-02-21T09:35:53;10.07;;;4.72;;
42000;SDS011;27689;48.390;10.856;2023-02-21T09:38:37;6.63;;;4.70;;
42000;SDS011;27689;48.390;10.856;2023-02-21T09:41:24;10.23;;;4.80;;
42000;SDS011;27689;48.390;10.856;2023-02-21T09:44:09;8.05;;;4.70;;
42000;SDS011;27689;48.390;10.856;2023-02-21T09:47:06;7.18;;;5.05;;
42000;SDS011;27689;48.390;10.856;2023-02-21T09:49:56;8.80;;;5.22;;
42000;SDS011;27689;48.390;10.856;2023-02-21T09:52:43;8.48;;;4.60;;
42000;SDS011;27689;48.390;10.856;2023-02-21T09:55:33;5.38;;;3.70;;
42000;SDS011;27689;48.390;10.856;2023-02-21T09:58:19;8.48;;;3.15;;
42000;SDS011;27689;48.390;10.856;2023-02-21T10:01:06;5.30;;;2.65;;
42000;SDS011;27689;48.390;10.856;2023-02-21T10:04:19;3.70;;;3.00;;
42000;SDS011;27689;48.390;10.856;2023-02-21T10:10:14;3.70;;;2.95;;
42000;SDS011;27689;48.390;10.856;2023-02-21T10:16:20;2.83;;;2.28;;
42000;SDS011;27689;48.390;10.856;2023-02-21T10:19:30;3.22;;;2.65;;
42000;SDS011;27689;48.390;10.856;2023-02-21T10:22:19;3.30;;;2.72;;
42000;SDS011;27689;48.390;10.856;2023-02-21T10:25:11;3.90;;;2.58;;
42000;SDS011;27689;48.390;10.856;2023-02-21T10:28:04;7.15;;;2.67;;
42000;SDS011;27689;48.390;10.856;2023-02-21T10:30:48;6.20;;;2.50;;
42000;SDS011;27689;48.390;10.856;2023-02-21T10:33:35;2.78;;;2.13;;
42000;SDS011;27689;48.390;10.856;2023-02-21T10:36:21;2.78;;;1.90;;
42000;SDS011;27689;48.390;10.856;2023-02-21T10:41:57;3.90;;;1.80;;
42000;SDS011;27689;48.390;10.856;2023-02-21T10:44:41;2.03;;;1.70;;
42000;SDS011;27689;48.390;10.856;2023-02-21T10:47:38;2.70;;;1.58;;
42000;SDS011;27689;48.390;10.856;2023-02-21T10:50:50;2.17;;;1.50;;
42000;SDS011;27689;48.390;10.856;2023-02-21T10:53:44;1.83;;;1.23;;
42000;SDS011;27689;48.390;10.856;2023-02-21T10:56:30;2.95;;;1.40;;
42000;SDS011;27689;48.390;10.856;2023-02-21T11:05:27;4.32;;;1.60;;
42000;SDS011;27689;48.390;10.856;2023-02-21T11:08:11;2.88;;;1.80;;
42000;SDS011;27689;48.390;10.856;2023-02-21T11:10:55;3.30;;;1.70;;
42000;SDS011;27689;48.390;10.856;2023-02-21T11:13:39;1.60;;;1.00;;
42000;SDS011;27689;48.390;10.856;2023-02-21T11:16:23;1.80;;;1.20;;
42000;SDS011;27689;48.390;10.856;2023-02-21T11:19:11;1.58;;;1.10;;
42000;SDS011;27689;48.390;10.856;2023-02-21T11:21:56;2.53;;;1.65;;
42000;SDS011;27689;48.390;10.856;2023-02-21T11:24:48;2.33;;;1.40;;
42000;SDS011;27689;48.390;10.856;2023-02-21T11:27:35;3.75;;;1.42;;
42000;SDS011;27689;48.390;10.856;2023-02-21T11:33:05;2.05;;;1.00;;
42000;SDS011;27689;48.390;10.856;2023-02-21T11:35:52;1.88;;;1.00;;
42000;SDS011;27689;48.390;10.856;2023-02-21T11:41:53;2.35;;;1.20;;
42000;SDS011;27689;48.390;10.856;2023-02-21T11:44:39;1.63;;;1.10;;
42000;SDS011;27689;48.390;10.856;2023-02-21T11:50:39;1.48;;;0.68;;
42000;SDS011;27689;48.390;10.856;2023-02-21T11:53:36;1.73;;;1.00;;
42000;SDS011;27689;48.390;10.856;2023-02-21T11:56:38;2.53;;;0.75;;
42000;SDS011;27689;48.390;10.856;2023-02-21T11:59:48;1.40;;;0.90;;
42000;SDS011;27689;48.390;10.856;2023-02-21T12:09:00;2.58;;;1.20;;
42000;SDS011;27689;48.390;10.856;2023-02-21T12:28:01;1.08;;;0.93;;
42000;SDS011;27689;48.390;10.856;2023-02-21T12:37:22;1.38;;;0.98;;
42000;SDS011;27689;48.390;10.856;2023-02-21T12:52:38;1.95;;;1.10;;
42000;SDS011;27689;48.390;10.856;2023-02-21T13:01:48;1.83;;;1.40;;
42000;SDS011;27689;48.390;10.856;2023-02-21T13:07:34;1.25;;;0.90;;
42000;SDS011;27689;48.390;10.856;2023-02-21T13:13:52;2.72;;;1.17;;
42000;SDS011;27689;48.390;10.856;2023-02-21T13:16:36;1.67;;;1.40;;
42000;SDS011;27689;48.390;10.856;2023-02-21T13:19:20;2.00;;;1.03;;
42000;SDS011;27689;48.390;10.856;2023-02-21T13:22:09;1.70;;;1.23;;
42000;SDS011;27689;48.390;10.856;2023-02-21T13:28:26;2.05;;;1.15;;
42000;SDS011;27689;48.390;10.856;2023-02-21T13:31:19;4.70;;;4.18;;
42000;SDS011;27689;48.390;10.856;2023-02-21T13:34:07;18.17;;;15.00;;
42000;SDS011;27689;48.390;10.856;2023-02-21T13:36:55;2.03;;;1.30;;
42000;SDS011;27689;48.390;10.856;2023-02-21T13:39:49;2.13;;;1.50;;
42000;SDS011;27689;48.390;10.856;2023-02-21T13:42:39;1.75;;;1.20;;
42000;SDS011;27689;48.390;10.856;2023-02-21T13:45:24;2.57;;;1.03;;
42000;SDS011;27689;48.390;10.856;2023-02-21T13:48:10;1.95;;;1.20;;
42000;SDS011;27689;48.390;10.856;2023-02-21T13:51:02;2.13;;;1.27;;
42000;SDS011;27689;48.390;10.856;2023-02-21T13:56:55;2.20;;;1.27;;
42000;SDS011;27689;48.390;10.856;2023-02-21T13:59:39;1.80;;;0.93;;
42000;SDS011;27689;48.390;10.856;2023-02-21T14:02:27;1.73;;;1.08;;
42000;SDS011;27689;48.390;10.856;2023-02-21T14:05:15;2.25;;;1.10;;
42000;SDS011;27689;48.390;10.856;2023-02-21T14:08:03;3.13;;;1.90;;
42000;SDS011;27689;48.390;10.856;2023-02-21T14:10:54;3.25;;;1.05;;
42000;SDS011;27689;48.390;10.856;2023-02-21T14:13:52;2.08;;;1.48;;
42000;SDS011;27689;48.390;10.856;2023-02-21T14:16:45;4.05;;;1.67;;
42000;SDS011;27689;48.390;10.856;2023-02-21T14:19:32;4.38;;;2.20;;
42000;SDS011;27689;48.390;10.856;2023-02-21T14:22:20;2.08;;;1.63;;
42000;SDS011;27689;48.390;10.856;2023-02-21T14:25:15;2.50;;;1.45;;
42000;SDS011;27689;48.390;10.856;2023-02-21T14:28:05;2.92;;;1.42;;
42000;SDS011;27689;48.390;10.856;2023-02-21T14:34:39;3.33;;;1.20;;
42000;SDS011;27689;48.390;10.856;2023-02-21T14:37:37;2.30;;;1.33;;
42000;SDS011;27689;48.390;10.856;2023-02-21T14:43:20;1.90;;;1.17;;
42000;SDS011;27689;48.390;10.856;2023-02-21T14:46:25;1.10;;;1.00;;
42000;SDS011;27689;48.390;10.856;2023-02-21T14:49:30;2.45;;;1.10;;
42000;SDS011;27689;48.390;10.856;2023-02-21T15:01:37;2.50;;;1.27;;
42000;SDS011;27689;48.390;10.856;2023-02-21T15:07:15;3.47;;;1.17;;
42000;SDS011;27689;48.390;10.856;2023-02-21T15:10:22;3.90;;;1.17;;
42000;SDS011;27689;48.390;10.856;2023-02-21T15:13:27;1.45;;;1.05;;
42000;SDS011;27689;48.390;10.856;2023-02-21T15:16:16;1.95;;;1.10;;
42000;SDS011;27689;48.390;10.856;2023-02-21T15:19:00;1.77;;;1.00;;
42000;SDS011;27689;48.390;10.856;2023-02-21T15:21:44;1.80;;;1.10;;
42000;SDS011;27689;48.390;10.856;2023-02-21T15:24:28;2.35;;;1.05;;
42000;SDS011;27689;48.390;10.856;2023-02-21T15:27:14;2.88;;;0.90;;
42000;SDS011;27689;48.390;10.856;2023-02-21T15:30:07;1.90;;;0.90;;
42000;SDS011;27689;48.390;10.856;2023-02-21T15:35:52;1.55;;;1.00;;
42000;SDS011;27689;48.390;10.856;2023-02-21T15:39:33;3.45;;;0.93;;
42000;SDS011;27689;48.390;10.856;2023-02-21T15:42:13;0.93;;;0.82;;
42000;SDS011;27689;48.390;10.856;2023-02-21T15:45:11;1.50;;;1.00;;
42000;SDS011;27689;48.390;10.856;2023-02-21T15:48:01;2.40;;;1.10;;
42000;SDS011;27689;48.390;10.856;2023-02-21T15:50:47;1.00;;;0.70;;
42000;SDS011;27689;48.390;10.856;2023-02-21T15:53:31;2.65;;;1.10;;
42000;SDS011;27689;48.390;10.856;2023-02-21T15:56:20;2.67;;;1.17;;
42000;SDS011;27689;48.390;10.856;2023-02-21T15:59:26;3.00;;;1.58;;
42000;SDS011;27689;48.390;10.856;2023-02-21T16:04:58;2.70;;;1.00;;
42000;SDS011;27689;48.390;10.856;2023-02-21T16:07:46;3.05;;;1.25;;
42000;SDS011;27689;48.390;10.856;2023-02-21T16:10:36;2.35;;;1.23;;
42000;SDS011;27689;48.390;10.856;2023-02-21T16:13:20;9.33;;;1.67;;
42000;SDS011;27689;48.390;10.856;2023-02-21T16:16:05;4.07;;;1.52;;
42000;SDS011;27689;48.390;10.856;2023-02-21T16:18:54;5.75;;;1.08;;
42000;SDS011;27689;48.390;10.856;2023-02-21T16:21:39;4.85;;;1.20;;
42000;SDS011;27689;48.390;10.856;2023-02-21T16:24:30;2.22;;;1.00;;
42000;SDS011;27689;48.390;10.856;2023-02-21T16:27:16;1.88;;;0.93;;
42000;SDS011;27689;48.390;10.856;2023-02-21T16:30:01;7.32;;;1.67;;
42000;SDS011;27689;48.390;10.856;2023-02-21T16:32:46;1.83;;;1.00;;
42000;SDS011;27689;48.390;10.856;2023-02-21T16:35:32;3.20;;;1.23;;
42000;SDS011;27689;48.390;10.856;2023-02-21T16:38:17;3.75;;;2.75;;
42000;SDS011;27689;48.390;10.856;2023-02-21T16:41:02;5.82;;;3.20;;
42000;SDS011;27689;48.390;10.856;2023-02-21T16:43:47;5.28;;;3.80;;
42000;SDS011;27689;48.390;10.856;2023-02-21T16:46:31;8.20;;;5.77;;
42000;SDS011;27689;48.390;10.856;2023-02-21T16:49:15;6.90;;;5.40;;
42000;SDS011;27689;48.390;10.856;2023-02-21T16:51:59;7.30;;;5.20;;
42000;SDS011;27689;48.390;10.856;2023-02-21T16:54:43;6.70;;;4.20;;
42000;SDS011;27689;48.390;10.856;2023-02-21T16:57:27;4.63;;;3.30;;
42000;SDS011;27689;48.390;10.856;2023-02-21T17:00:11;5.25;;;3.30;;
42000;SDS011;27689;48.390;10.856;2023-02-21T17:02:55;4.35;;;3.05;;
42000;SDS011;27689;48.390;10.856;2023-02-21T17:05:39;4.82;;;2.78;;
42000;SDS011;27689;48.390;10.856;2023-02-21T17:08:23;3.40;;;2.22;;
42000;SDS011;27689;48.390;10.856;2023-02-21T17:11:09;5.32;;;2.88;;
42000;SDS011;27689;48.390;10.856;2023-02-21T17:13:53;3.22;;;2.70;;
42000;SDS011;27689;48.390;10.856;2023-02-21T17:16:37;4.47;;;3.07;;
42000;SDS011;27689;48.390;10.856;2023-02-21T17:19:21;4.30;;;2.72;;
42000;SDS011;27689;48.390;10.856;2023-02-21T17:24:50;4.60;;;2.90;;
42000;SDS011;27689;48.390;10.856;2023-02-21T17:27:34;6.65;;;2.80;;
42000;SDS011;27689;48.390;10.856;2023-02-21T17:33:05;7.22;;;3.00;;
42000;SDS011;27689;48.390;10.856;2023-02-21T17:35:51;4.00;;;2.80;;
42000;SDS011;27689;48.390;10.856;2023-02-21T17:41:20;6.43;;;3.90;;
42000;SDS011;27689;48.390;10.856;2023-02-21T17:46:50;9.35;;;5.45;;
42000;SDS011;27689;48.390;10.856;2023-02-21T17:49:36;9.68;;;5.70;;
42000;SDS011;27689;48.390;10.856;2023-02-21T17:52:20;9.93;;;5.90;;
42000;SDS011;27689;48.390;10.856;2023-02-21T17:55:04;13.75;;;6.00;;
42000;SDS011;27689;48.390;10.856;2023-02-21T17:57:50;10.20;;;5.55;;
42000;SDS011;27689;48.390;10.856;2023-02-21T18:00:35;14.52;;;9.00;;
42000;SDS011;27689;48.390;10.856;2023-02-21T18:03:23;10.93;;;7.47;;
42000;SDS011;27689;48.390;10.856;2023-02-21T18:06:07;11.63;;;6.97;;
42000;SDS011;27689;48.390;10.856;2023-02-21T18:08:51;20.77;;;7.82;;
42000;SDS011;27689;48.390;10.856;2023-02-21T18:11:35;16.80;;;9.13;;
42000;SDS011;27689;48.390;10.856;2023-02-21T18:14:19;10.55;;;7.53;;
42000;SDS011;27689;48.390;10.856;2023-02-21T18:17:04;14.05;;;8.68;;
42000;SDS011;27689;48.390;10.856;2023-02-21T18:19:49;15.00;;;10.07;;
42000;SDS011;27689;48.390;10.856;2023-02-21T18:22:33;13.27;;;9.90;;
42000;SDS011;27689;48.390;10.856;2023-02-21T18:25:17;15.00;;;9.53;;
42000;SDS011;27689;48.390;10.856;2023-02-21T18:28:03;19.30;;;10.18;;
42000;SDS011;27689;48.390;10.856;2023-02-21T18:30:47;15.93;;;10.03;;
42000;SDS011;27689;48.390;10.856;2023-02-21T18:33:33;18.15;;;9.57;;
42000;SDS011;27689;48.390;10.856;2023-02-21T18:36:17;17.40;;;9.80;;
42000;SDS011;27689;48.390;10.856;2023-02-21T18:39:01;18.77;;;10.57;;
42000;SDS011;27689;48.390;10.856;2023-02-21T18:41:45;18.73;;;10.85;;
42000;SDS011;27689;48.390;10.856;2023-02-21T18:44:30;15.80;;;10.65;;
42000;SDS011;27689;48.390;10.856;2023-02-21T18:47:14;26.88;;;14.60;;
42000;SDS011;27689;48.390;10.856;2023-02-21T18:49:59;20.17;;;12.73;;
42000;SDS011;27689;48.390;10.856;2023-02-21T18:55:28;20.40;;;11.45;;
42000;SDS011;27689;48.390;10.856;2023-02-21T19:00:57;18.13;;;11.23;;
42000;SDS011;27689;48.390;10.856;2023-02-21T19:03:41;17.50;;;11.60;;
42000;SDS011;27689;48.390;10.856;2023-02-21T19:06:25;19.83;;;12.10;;
42000;SDS011;27689;48.390;10.856;2023-02-21T19:09:09;21.23;;;12.18;;